Vigan, Philippines

7:12 AM PHT on August 28, 2014 (GMT +0800)
Laoag International | Change Station
CLOSE
Current Station
Airport
Location: Laoag,
Elevation: 16 ft
Nearby Weather Stations

Elev 16 ft 18.18 °N, 120.53 °E | Updated 1 hour ago

Thunderstorm
Thunderstorm
77 °F
Feels Like 77 °F
N
5
Wind Variable Wind from East

Today
High -- | Low -- °F
--% Chance of Precip.
Yesterday
High -- | Low -- °F
Precip. -- in
5:43 AM 6:15 PM
Waxing Crescent, 5% visible
Pressure 29.86 in
Visibility 6.2 miles
Clouds Few 1800 ft
Few 1900 ft
Dew Point 77 °F
Humidity 100%
Rainfall 0.00 in
Snow Depth Not available.
UV 0 out of 12
Pollen Not available.
Air Quality Not available.
Flu Activity Not available.
METAR RPLI 272200Z 09004KT 9999 TS FEW018CB FEW019 25/25 Q1011 RMK A2986 CB W

More Conditions Fewer Conditions

Pressure 29.86 in
Visibility 6.2 miles
Clouds Few 1800 ft
Few 1900 ft
Dew Point 77 °F
Humidity 100%
Rainfall 0.00 in
Snow Depth Not available.
UV 0 out of 12
Pollen Not available.
Air Quality Not available.
Flu Activity Not available.
METAR RPLI 272200Z 09004KT 9999 TS FEW018CB FEW019 25/25 Q1011 RMK A2986 CB W

More Conditions Fewer Conditions

10-Day Weather Forecast

Almanac

Astronomy

Aug. 28, 2014 Rise Set
Actual Time 5:43 AM PHT 6:15 PM PHT
Civil Twilight 5:21 AM PHT 6:37 PM PHT
Nautical Twilight 4:55 AM PHT 7:03 PM PHT
Astronomical Twilight 4:28 AM PHT 7:29 PM PHT
Moon 7:36 AM PHT (8/28) 7:50 PM PHT (8/28)
Length of Visible Light 13h 16m
Length of Day
12h 32m
Tomorrow will be 0m 57s shorter.
Waxing Crescent, 5% of the Moon is Illuminated
Aug 27
Waxing Crescent
Sep 2
First Quarter
Sep 8
Full
Sep 15
Last Quarter
Sep 24
New

Yesterday's Extremes

Country Highs Country Lows

Community

WunderPhotos

Upload Photos

1,747,815 photos uploaded!

Nearby

Snow Depth

Not available.

Earthquake Activity

City Distance Mag. Time & Date
No recent earthquake activity has been reported nearby.
Minimum magnitude displayed is 2.5.

Coastal Water Temperatures

Place Temperature
No Stations Reporting

Nearby Weather Stations